Time;durP1;ratioP1;P1;durP2;ratioP2;P2;SDS_P1;SDS_P2;PMS_P1;PMS_P2;Temp;Humidity;BMP_temperature;BMP_pressure;BME280_temperature;BME280_humidity;BME280_pressure;Samples;Min_cycle;Max_cycle;Signal;HPM_P1;HPM_P2
2023/03/04 00:02:00;;;;;;;27.42;16.30;;;3.20;73.30;;;;;;5074578;28;20115;-21
2023/03/04 00:04:26;;;;;;;24.58;14.85;;;3.30;73.70;;;;;;5074125;28;20051;-19
2023/03/04 00:06:52;;;;;;;32.45;18.63;;;3.30;73.40;;;;;;5073685;28;20056;-20
2023/03/04 00:09:17;;;;;;;36.45;20.63;;;3.30;73.80;;;;;;5074305;28;20035;-21
2023/03/04 00:11:43;;;;;;;35.20;20.08;;;3.20;73.80;;;;;;5074302;28;20032;-21
2023/03/04 00:14:09;;;;;;;35.53;20.10;;;3.10;74.00;;;;;;5074746;28;20487;-21
2023/03/04 00:16:35;;;;;;;31.98;21.08;;;3.00;74.20;;;;;;5074124;28;20033;-20
2023/03/04 00:19:01;;;;;;;41.15;22.20;;;3.00;74.10;;;;;;5073760;28;20471;-20
2023/03/04 00:21:27;;;;;;;39.53;22.15;;;2.90;74.00;;;;;;5056482;28;20377;-21
2023/03/04 00:23:52;;;;;;;41.65;22.85;;;2.80;74.10;;;;;;5073770;28;20127;-20
2023/03/04 00:26:18;;;;;;;40.67;23.35;;;2.80;74.10;;;;;;5073732;28;20033;-21
2023/03/04 00:28:44;;;;;;;42.25;22.35;;;2.70;74.50;;;;;;5073927;28;20039;-20
2023/03/04 00:31:10;;;;;;;39.30;22.90;;;2.70;74.60;;;;;;5073670;28;20020;-20
2023/03/04 00:33:36;;;;;;;38.83;23.25;;;2.60;74.90;;;;;;5073952;28;20430;-19
2023/03/04 00:36:03;;;;;;;31.13;17.70;;;2.60;75.00;;;;;;5073768;28;20031;-19
2023/03/04 00:38:29;;;;;;;29.25;17.88;;;2.60;75.00;;;;;;5073654;28;20363;-20
2023/03/04 00:40:55;;;;;;;23.75;15.38;;;2.60;75.20;;;;;;5073573;28;20040;-19
2023/03/04 00:43:21;;;;;;;27.77;16.52;;;2.60;74.90;;;;;;5073636;28;20043;-19
2023/03/04 00:45:47;;;;;;;39.03;20.90;;;2.60;74.60;;;;;;5073753;28;20102;-20
2023/03/04 00:48:15;;;;;;;22.73;14.50;;;2.50;75.30;;;;;;5073270;28;20491;-19
2023/03/04 00:50:41;;;;;;;32.10;18.95;;;2.50;75.10;;;;;;5072849;28;20048;-21
2023/03/04 00:53:08;;;;;;;26.90;15.57;;;2.50;75.10;;;;;;5073236;28;20051;-20
2023/03/04 00:55:34;;;;;;;33.30;21.13;;;2.50;75.30;;;;;;5073365;28;20384;-21
2023/03/04 00:57:59;;;;;;;35.03;20.90;;;2.50;74.90;;;;;;5073397;28;20479;-20
2023/03/04 01:00:25;;;;;;;30.52;19.05;;;2.40;75.00;;;;;;5073094;28;20036;-19
2023/03/04 01:02:51;;;;;;;27.70;16.25;;;2.40;74.90;;;;;;5073299;28;20043;-19
2023/03/04 01:05:17;;;;;;;40.97;21.60;;;2.40;74.80;;;;;;5073036;28;20376;-19
2023/03/04 01:07:43;;;;;;;38.28;21.42;;;2.40;74.80;;;;;;5073339;28;20380;-20
2023/03/04 01:10:11;;;;;;;44.00;23.23;;;2.40;75.00;;;;;;5128100;22;20483;-13
2023/03/04 01:12:38;;;;;;;34.72;19.60;;;2.40;75.40;;;;;;5011251;28;20053;-17
2023/03/04 01:15:05;;;;;;;37.25;21.40;;;2.50;75.60;;;;;;5013699;28;20034;-12
2023/03/04 01:17:31;;;;;;;39.83;21.85;;;2.50;75.40;;;;;;5013306;28;20433;-13
2023/03/04 01:19:56;;;;;;;38.50;21.90;;;2.60;75.40;;;;;;5013530;28;20073;-16
2023/03/04 01:22:22;;;;;;;37.30;20.23;;;2.60;75.10;;;;;;5122655;22;20080;-18
2023/03/04 01:24:48;;;;;;;37.53;21.40;;;2.60;75.40;;;;;;5072347;28;20359;-18
2023/03/04 01:27:14;;;;;;;34.70;19.70;;;2.60;75.50;;;;;;5073063;28;20024;-18
2023/03/04 01:29:40;;;;;;;28.90;18.38;;;2.60;75.60;;;;;;5072874;28;20016;-16
2023/03/04 01:32:05;;;;;;;26.88;16.08;;;2.60;75.50;;;;;;5073000;28;20046;-17
2023/03/04 01:34:31;;;;;;;31.58;18.67;;;2.50;75.40;;;;;;5072589;28;20152;-18
2023/03/04 01:36:57;;;;;;;29.67;16.52;;;2.50;75.30;;;;;;5072258;28;20016;-18
2023/03/04 01:39:23;;;;;;;29.65;18.23;;;2.50;75.30;;;;;;5072862;28;20024;-17
2023/03/04 01:41:49;;;;;;;33.33;19.45;;;2.40;75.20;;;;;;5108921;22;20080;-14
2023/03/04 01:44:15;;;;;;;27.77;15.90;;;2.40;75.40;;;;;;5052963;28;20853;-16
2023/03/04 01:46:48;;;;;;;33.13;17.50;;;2.30;75.50;;;;;;5052466;28;20024;-18
2023/03/04 01:49:15;;;;;;;24.23;15.32;;;2.30;75.70;;;;;;5052875;28;20162;-14
2023/03/04 01:51:48;;;;;;;31.00;16.73;;;2.30;75.80;;;;;;5152776;22;20083;-24
2023/03/04 01:54:15;;;;;;;24.05;14.13;;;2.30;76.00;;;;;;5072780;28;20111;-24
2023/03/04 01:56:44;;;;;;;29.23;17.40;;;2.30;75.80;;;;;;5072648;28;20489;-24
2023/03/04 01:59:18;;;;;;;22.05;14.02;;;2.30;76.20;;;;;;5072792;28;20050;-24
2023/03/04 02:01:55;;;;;;;25.20;14.45;;;2.30;76.20;;;;;;5072640;28;20039;-23
2023/03/04 02:04:24;;;;;;;23.85;14.02;;;2.20;75.80;;;;;;5070887;28;20024;-22
2023/03/04 02:06:51;;;;;;;21.45;13.23;;;2.20;75.80;;;;;;5072032;28;20020;-22
2023/03/04 02:09:18;;;;;;;23.83;13.93;;;2.20;75.40;;;;;;5072450;28;20020;-23
2023/03/04 02:11:45;;;;;;;25.35;15.48;;;2.20;75.50;;;;;;5072612;28;20033;-23
2023/03/04 02:14:12;;;;;;;27.83;16.10;;;2.20;75.60;;;;;;5072573;28;20379;-23
2023/03/04 02:16:38;;;;;;;34.97;20.05;;;2.20;75.90;;;;;;5072754;28;20036;-23
2023/03/04 02:19:12;;;;;;;39.10;20.98;;;2.10;75.90;;;;;;5072571;28;20048;-23
2023/03/04 02:21:37;;;;;;;34.40;20.00;;;2.10;75.60;;;;;;5054469;28;20431;-24
2023/03/04 02:24:06;;;;;;;37.83;20.40;;;2.00;75.60;;;;;;5072486;28;20043;-23
2023/03/04 02:26:38;;;;;;;32.25;19.17;;;2.00;75.80;;;;;;5072238;28;20542;-23
2023/03/04 02:29:04;;;;;;;25.33;14.63;;;2.00;75.90;;;;;;5072561;28;20024;-23
2023/03/04 02:31:53;;;;;;;34.72;19.67;;;1.90;76.30;;;;;;5072130;28;20036;-23
2023/03/04 02:34:21;;;;;;;29.70;16.20;;;1.90;76.50;;;;;;5072087;28;20546;-23
2023/03/04 02:36:48;;;;;;;25.83;15.20;;;1.90;76.40;;;;;;5072011;28;20020;-22
2023/03/04 02:39:34;;;;;;;34.47;17.67;;;1.80;76.50;;;;;;5072083;28;20379;-23
2023/03/04 02:42:02;;;;;;;32.78;17.05;;;1.80;76.40;;;;;;5072123;28;20028;-23
2023/03/04 02:44:30;;;;;;;23.88;14.25;;;1.70;76.50;;;;;;5054286;28;20035;-22
2023/03/04 02:46:57;;;;;;;25.58;14.85;;;1.70;76.60;;;;;;5072007;28;20043;-23
2023/03/04 02:49:25;;;;;;;27.15;15.32;;;1.70;76.20;;;;;;5072328;28;20028;-24
2023/03/04 02:51:57;;;;;;;24.25;13.93;;;1.70;76.40;;;;;;5071901;28;20117;-23
2023/03/04 02:54:23;;;;;;;33.60;18.02;;;1.60;76.20;;;;;;5072194;28;20024;-23
2023/03/04 02:56:53;;;;;;;22.95;14.30;;;1.60;76.20;;;;;;5072027;28;20012;-24
2023/03/04 02:59:20;;;;;;;33.85;19.85;;;1.60;76.50;;;;;;5071999;28;20064;-24
2023/03/04 03:01:46;;;;;;;34.25;18.35;;;1.60;76.80;;;;;;5072282;28;20090;-22
2023/03/04 03:04:13;;;;;;;21.98;13.55;;;1.60;76.90;;;;;;5072178;28;20054;-24
2023/03/04 03:06:39;;;;;;;22.27;13.65;;;1.60;76.90;;;;;;5071870;28;20514;-23
2023/03/04 03:09:06;;;;;;;31.63;17.52;;;1.50;76.60;;;;;;5071779;28;20499;-22
2023/03/04 03:11:32;;;;;;;28.95;16.70;;;1.50;76.60;;;;;;5072154;28;20028;-23
2023/03/04 03:13:58;;;;;;;24.73;15.00;;;1.50;77.00;;;;;;5072651;28;20084;-22
2023/03/04 03:16:24;;;;;;;35.85;19.42;;;1.50;77.00;;;;;;5074752;28;20031;-23
2023/03/04 03:18:50;;;;;;;25.48;15.18;;;1.40;77.00;;;;;;5075112;28;20126;-23
2023/03/04 03:21:16;;;;;;;23.00;13.60;;;1.40;77.00;;;;;;5075345;28;20036;-20
2023/03/04 03:23:42;;;;;;;29.25;15.93;;;1.30;77.00;;;;;;5075558;28;20158;-23
2023/03/04 03:26:08;;;;;;;36.17;19.85;;;1.30;76.90;;;;;;5075075;28;20107;-23
2023/03/04 03:28:34;;;;;;;28.98;15.93;;;1.30;77.00;;;;;;5075359;28;20028;-23
2023/03/04 03:31:00;;;;;;;34.65;17.77;;;1.30;77.20;;;;;;5075129;28;20052;-22
2023/03/04 03:33:26;;;;;;;30.25;16.40;;;1.20;77.00;;;;;;5074892;28;20387;-22
2023/03/04 03:35:52;;;;;;;23.95;14.32;;;1.20;77.10;;;;;;5075196;28;20488;-23
2023/03/04 03:38:18;;;;;;;26.20;14.85;;;1.10;77.20;;;;;;5075365;28;20375;-23
2023/03/04 03:40:44;;;;;;;26.55;15.98;;;1.10;77.10;;;;;;5074880;28;20170;-23
2023/03/04 03:43:11;;;;;;;29.75;16.60;;;1.10;77.00;;;;;;5057838;28;20025;-23
2023/03/04 03:45:37;;;;;;;28.50;16.73;;;1.10;76.90;;;;;;5075638;28;20360;-23
2023/03/04 03:48:03;;;;;;;37.70;21.35;;;1.10;76.90;;;;;;5074995;28;20048;-23
2023/03/04 03:50:29;;;;;;;38.83;20.90;;;1.10;77.10;;;;;;5074618;28;20458;-23
2023/03/04 03:52:54;;;;;;;34.55;18.95;;;1.10;77.20;;;;;;5074694;28;20033;-23
2023/03/04 03:55:21;;;;;;;36.13;19.33;;;1.10;77.30;;;;;;5074785;28;20025;-23
2023/03/04 03:57:47;;;;;;;29.60;17.83;;;1.20;77.30;;;;;;5074853;28;20107;-24
2023/03/04 04:00:15;;;;;;;38.40;19.50;;;1.20;77.40;;;;;;5074606;28;20028;-23
2023/03/04 04:02:40;;;;;;;36.53;18.85;;;1.20;77.30;;;;;;5074506;28;20035;-23
2023/03/04 04:05:07;;;;;;;31.38;18.67;;;1.30;77.20;;;;;;5074659;28;20024;-22
2023/03/04 04:07:34;;;;;;;28.50;16.48;;;1.20;77.40;;;;;;5074588;28;20035;-24
2023/03/04 04:10:00;;;;;;;30.60;17.88;;;1.20;77.50;;;;;;5074457;28;20031;-23
2023/03/04 04:12:26;;;;;;;31.83;17.05;;;1.20;77.30;;;;;;5074783;28;20024;-23
2023/03/04 04:14:52;;;;;;;28.83;15.55;;;1.10;77.30;;;;;;5074428;28;20021;-23
2023/03/04 04:17:18;;;;;;;30.15;18.02;;;1.00;77.30;;;;;;5073080;28;20032;-24
2023/03/04 04:19:44;;;;;;;34.35;18.13;;;1.00;77.50;;;;;;5074479;28;20075;-24
2023/03/04 04:22:15;;;;;;;27.10;15.27;;;0.90;77.50;;;;;;5074410;28;20029;-23
2023/03/04 04:24:41;;;;;;;31.83;17.95;;;0.90;77.80;;;;;;5074395;28;20051;-24
2023/03/04 04:27:07;;;;;;;25.15;13.90;;;0.90;77.70;;;;;;5073854;28;20158;-23
2023/03/04 04:29:33;;;;;;;25.80;14.20;;;0.90;77.60;;;;;;5074044;28;20084;-23
2023/03/04 04:31:59;;;;;;;24.08;13.48;;;0.80;77.40;;;;;;5074367;28;20032;-22
2023/03/04 04:34:25;;;;;;;24.45;13.85;;;0.80;77.80;;;;;;5074205;28;20031;-25
2023/03/04 04:36:51;;;;;;;23.58;13.68;;;0.80;77.90;;;;;;5073448;28;20203;-24
2023/03/04 04:39:18;;;;;;;28.77;15.93;;;0.80;77.60;;;;;;5073916;28;20056;-24
2023/03/04 04:41:44;;;;;;;21.52;13.27;;;0.80;77.80;;;;;;5073801;28;20052;-25
2023/03/04 04:44:11;;;;;;;23.55;12.73;;;0.90;77.80;;;;;;5073714;28;20033;-24
2023/03/04 04:46:38;;;;;;;20.70;12.20;;;0.80;77.70;;;;;;5073708;28;20062;-24
2023/03/04 04:49:04;;;;;;;22.35;12.82;;;0.80;77.70;;;;;;5073231;28;20506;-24
2023/03/04 04:51:31;;;;;;;27.60;15.35;;;0.80;77.60;;;;;;5073518;28;20053;-24
2023/03/04 04:53:59;;;;;;;33.03;17.40;;;0.70;77.80;;;;;;5073788;28;20430;-24
2023/03/04 04:56:25;;;;;;;26.40;14.82;;;0.70;77.80;;;;;;5073867;28;20166;-23
2023/03/04 04:58:53;;;;;;;24.30;13.55;;;0.70;78.30;;;;;;5073251;28;20072;-23
2023/03/04 05:01:19;;;;;;;24.83;14.00;;;0.70;78.10;;;;;;5073550;28;20039;-24
2023/03/04 05:03:45;;;;;;;30.45;16.38;;;0.70;78.50;;;;;;5055483;28;20395;-23
2023/03/04 05:06:12;;;;;;;20.13;12.02;;;0.70;78.60;;;;;;5073101;28;20029;-25
2023/03/04 05:08:38;;;;;;;26.13;14.85;;;0.70;78.40;;;;;;5073498;28;20495;-24
2023/03/04 05:11:05;;;;;;;24.35;14.50;;;0.60;77.70;;;;;;5073436;28;20100;-23
2023/03/04 05:13:31;;;;;;;23.85;13.45;;;0.60;77.60;;;;;;5073150;28;20103;-23
2023/03/04 05:15:57;;;;;;;21.35;12.32;;;0.60;77.80;;;;;;5073483;28;20032;-24
2023/03/04 05:18:25;;;;;;;24.45;14.18;;;0.50;77.80;;;;;;5109029;22;20049;-14
2023/03/04 05:20:52;;;;;;;22.23;13.18;;;0.50;77.80;;;;;;5052633;28;20475;-15
2023/03/04 05:23:18;;;;;;;30.55;17.88;;;0.40;77.80;;;;;;5051686;28;20033;-17
2023/03/04 05:25:44;;;;;;;32.13;18.17;;;0.30;78.00;;;;;;5053213;28;20044;-19
2023/03/04 05:28:11;;;;;;;29.98;15.82;;;0.30;78.20;;;;;;5151866;22;20056;-18
2023/03/04 05:30:38;;;;;;;35.55;18.73;;;0.30;78.20;;;;;;5072975;28;20028;-19
2023/03/04 05:33:06;;;;;;;35.47;16.67;;;0.30;78.20;;;;;;5072916;28;20107;-19
2023/03/04 05:35:32;;;;;;;22.88;12.38;;;0.30;78.20;;;;;;5072835;28;20028;-16
2023/03/04 05:37:58;;;;;;;24.67;14.20;;;0.20;78.30;;;;;;5072211;28;20025;-18
2023/03/04 05:40:24;;;;;;;19.88;12.23;;;0.20;78.40;;;;;;5131908;22;20091;-17
2023/03/04 05:42:50;;;;;;;27.13;15.80;;;0.20;78.60;;;;;;5072673;28;20024;-19
2023/03/04 05:45:17;;;;;;;30.33;16.95;;;0.20;78.50;;;;;;5054660;28;20050;-19
2023/03/04 05:47:43;;;;;;;30.02;17.23;;;0.20;78.60;;;;;;5072584;28;20036;-18
2023/03/04 05:50:10;;;;;;;25.15;14.10;;;0.20;78.60;;;;;;5072610;28;20093;-16
2023/03/04 05:52:36;;;;;;;26.77;15.10;;;0.10;78.40;;;;;;5072887;28;20029;-18
2023/03/04 05:55:02;;;;;;;26.95;16.52;;;0.10;78.20;;;;;;5072266;28;20086;-17
2023/03/04 05:57:28;;;;;;;31.67;17.40;;;0.10;78.40;;;;;;5072493;28;20024;-17
2023/03/04 05:59:54;;;;;;;29.48;15.60;;;0.10;78.50;;;;;;5072822;28;20081;-17
2023/03/04 06:02:20;;;;;;;24.40;13.68;;;0.10;78.50;;;;;;5072249;28;20024;-17
2023/03/04 06:04:46;;;;;;;32.60;16.65;;;0.20;78.70;;;;;;5072274;28;20032;-19
2023/03/04 06:07:12;;;;;;;30.85;16.33;;;0.20;78.80;;;;;;5178560;22;20052;-18
2023/03/04 06:09:38;;;;;;;34.10;17.60;;;0.20;78.70;;;;;;5092378;28;20066;-19
2023/03/04 06:12:04;;;;;;;31.48;16.95;;;0.30;78.70;;;;;;5136198;22;20468;-17
2023/03/04 06:14:30;;;;;;;26.80;15.38;;;0.30;79.00;;;;;;5072709;28;20029;-17
2023/03/04 06:16:56;;;;;;;31.00;15.70;;;0.40;79.20;;;;;;5072081;28;20029;-19
2023/03/04 06:19:22;;;;;;;29.27;15.70;;;0.60;79.30;;;;;;5072511;28;20372;-17
2023/03/04 06:21:48;;;;;;;25.63;14.48;;;0.70;79.20;;;;;;5072653;28;20032;-19
2023/03/04 06:24:14;;;;;;;32.80;16.15;;;0.90;79.30;;;;;;5072331;28;20032;-18
2023/03/04 06:26:40;;;;;;;28.27;14.95;;;1.00;79.40;;;;;;5072140;28;20040;-19
2023/03/04 06:29:06;;;;;;;20.85;11.85;;;1.20;79.60;;;;;;5072568;28;20360;-18
2023/03/04 06:31:32;;;;;;;25.00;13.85;;;1.40;79.50;;;;;;5053951;28;20017;-18
2023/03/04 06:33:58;;;;;;;24.60;14.65;;;1.60;79.40;;;;;;5072149;28;20075;-19
2023/03/04 06:36:24;;;;;;;30.27;17.63;;;1.80;79.30;;;;;;5071901;28;20094;-19
2023/03/04 06:38:50;;;;;;;29.40;14.98;;;2.10;79.10;;;;;;5071732;28;20028;-18
2023/03/04 06:41:16;;;;;;;31.77;17.30;;;2.30;78.70;;;;;;5071849;28;20063;-18
2023/03/04 06:43:42;;;;;;;22.77;14.02;;;2.50;78.60;;;;;;5072245;28;20082;-18
2023/03/04 06:46:09;;;;;;;32.03;18.38;;;2.60;78.40;;;;;;5071657;28;20020;-18
2023/03/04 06:48:35;;;;;;;27.02;15.40;;;2.90;78.50;;;;;;5157991;22;20048;-18
2023/03/04 06:51:09;;;;;;;23.98;13.65;;;3.00;78.70;;;;;;5095559;28;20538;-19
2023/03/04 06:53:36;;;;;;;;;;;3.30;78.20;;;;;;5096209;28;20036;-18
2023/03/04 06:56:02;;;;;;;29.23;16.02;;;3.60;78.50;;;;;;5096091;28;20370;-18
2023/03/04 06:58:28;;;;;;;28.08;16.48;;;3.90;78.30;;;;;;5096110;28;20107;-19
2023/03/04 07:00:54;;;;;;;33.50;19.27;;;4.10;78.00;;;;;;5152120;22;20379;-16
2023/03/04 07:03:21;;;;;;;32.13;19.25;;;4.40;77.80;;;;;;5096029;28;20020;-17
2023/03/04 07:05:47;;;;;;;46.33;27.38;;;4.60;77.60;;;;;;5095640;28;20039;-17
2023/03/04 07:08:13;;;;;;;33.13;19.42;;;4.80;77.50;;;;;;5095560;28;20402;-18
2023/03/04 07:10:39;;;;;;;26.60;15.98;;;5.00;77.40;;;;;;5095452;28;20027;-17
2023/03/04 07:13:05;;;;;;;25.23;15.25;;;5.30;77.40;;;;;;5095649;28;20027;-18
2023/03/04 07:15:31;;;;;;;23.65;14.90;;;5.50;77.60;;;;;;5095169;28;20032;-18
2023/03/04 07:17:57;;;;;;;22.95;13.80;;;5.90;77.50;;;;;;5095659;28;20024;-17
2023/03/04 07:20:23;;;;;;;24.95;14.27;;;6.20;77.00;;;;;;5077158;28;20528;-17
2023/03/04 07:22:49;;;;;;;24.05;13.45;;;6.60;76.80;;;;;;5095028;28;20032;-17
2023/03/04 07:25:16;;;;;;;22.35;12.07;;;6.90;76.10;;;;;;5095163;28;20028;-17
2023/03/04 07:27:42;;;;;;;26.85;14.23;;;7.10;75.80;;;;;;5095069;28;20032;-17
2023/03/04 07:30:09;;;;;;;23.83;13.65;;;7.40;75.10;;;;;;5095090;28;20103;-18
2023/03/04 07:32:35;;;;;;;25.23;14.90;;;7.60;74.70;;;;;;5095099;28;20024;-17
2023/03/04 07:35:02;;;;;;;31.15;19.48;;;7.90;74.40;;;;;;5095020;28;20103;-19
2023/03/04 07:37:28;;;;;;;25.35;13.32;;;8.10;73.90;;;;;;5095149;28;20475;-17
2023/03/04 07:39:55;;;;;;;29.10;18.23;;;8.30;73.30;;;;;;5076881;28;20032;-17
2023/03/04 07:42:21;;;;;;;22.55;13.00;;;8.50;73.20;;;;;;5095276;28;20012;-18
2023/03/04 07:44:47;;;;;;;25.90;14.88;;;8.80;72.30;;;;;;5094882;28;20110;-17
2023/03/04 07:47:13;;;;;;;24.90;14.15;;;9.00;71.60;;;;;;5095269;28;20063;-18
2023/03/04 07:49:39;;;;;;;21.70;13.77;;;9.30;70.30;;;;;;5095091;28;20016;-16
2023/03/04 07:52:05;;;;;;;26.75;15.00;;;9.60;69.70;;;;;;5076409;28;20054;-16
2023/03/04 07:54:31;;;;;;;22.52;13.20;;;9.80;69.60;;;;;;5094496;28;20399;-18
2023/03/04 07:56:57;;;;;;;21.65;13.05;;;10.00;69.20;;;;;;5076228;28;20055;-16
2023/03/04 07:59:23;;;;;;;24.88;14.35;;;10.20;68.80;;;;;;5094011;28;20070;-16
2023/03/04 08:01:50;;;;;;;30.27;17.20;;;10.30;68.60;;;;;;5093637;28;20028;-17
2023/03/04 08:04:16;;;;;;;23.98;14.65;;;10.40;68.50;;;;;;5094685;28;20063;-17
2023/03/04 08:06:42;;;;;;;20.92;13.05;;;10.50;68.10;;;;;;5094693;28;20036;-17
2023/03/04 08:09:12;;;;;;;23.52;13.60;;;10.60;68.10;;;;;;5076465;28;20186;-16
2023/03/04 08:11:38;;;;;;;18.02;11.38;;;10.80;67.90;;;;;;5095049;28;20020;-18
2023/03/04 08:14:05;;;;;;;19.95;11.77;;;10.90;68.00;;;;;;5094640;28;20028;-18
2023/03/04 08:16:31;;;;;;;17.35;11.63;;;11.10;66.80;;;;;;5094288;28;20020;-18
2023/03/04 08:18:59;;;;;;;18.92;10.98;;;11.20;67.40;;;;;;5094089;28;20097;-17
2023/03/04 08:21:26;;;;;;;18.17;10.77;;;11.30;67.00;;;;;;5094254;28;20031;-17
2023/03/04 08:23:53;;;;;;;19.58;11.52;;;11.50;66.40;;;;;;5094340;28;20391;-16
2023/03/04 08:26:24;;;;;;;18.63;10.55;;;11.60;66.10;;;;;;5094153;28;20112;-18
2023/03/04 08:28:50;;;;;;;16.38;10.30;;;11.80;65.60;;;;;;5094036;28;20111;-18
2023/03/04 08:31:17;;;;;;;17.33;9.52;;;11.90;65.60;;;;;;5093825;28;20020;-16
2023/03/04 08:33:44;;;;;;;19.13;10.80;;;12.00;65.40;;;;;;5093894;28;20394;-17
2023/03/04 08:36:10;;;;;;;19.63;11.23;;;12.20;64.90;;;;;;5093843;28;20440;-17
2023/03/04 08:38:36;;;;;;;17.30;10.23;;;12.40;64.20;;;;;;5093624;28;20054;-16
2023/03/04 08:41:03;;;;;;;17.75;10.57;;;12.60;63.80;;;;;;5183899;22;20044;-17
2023/03/04 08:43:30;;;;;;;17.52;9.50;;;12.90;62.40;;;;;;5093893;28;20020;-16
2023/03/04 08:45:56;;;;;;;15.15;8.95;;;13.20;62.40;;;;;;5093542;28;20488;-17
2023/03/04 08:48:23;;;;;;;15.85;8.77;;;13.40;61.00;;;;;;5093854;28;20536;-18
2023/03/04 08:50:49;;;;;;;16.70;9.63;;;13.70;60.50;;;;;;5093348;28;20490;-18
2023/03/04 08:53:16;;;;;;;19.38;9.30;;;13.90;59.60;;;;;;5093687;28;20035;-20
2023/03/04 08:55:43;;;;;;;13.98;8.43;;;14.20;56.30;;;;;;5093331;28;20107;-17
2023/03/04 08:58:10;;;;;;;16.85;10.20;;;14.40;56.70;;;;;;5093317;28;20477;-16
2023/03/04 09:00:38;;;;;;;18.38;9.75;;;14.70;56.70;;;;;;5150610;22;20410;-18
2023/03/04 09:03:04;;;;;;;16.83;9.90;;;14.80;55.50;;;;;;5093711;28;20462;-16
2023/03/04 09:05:31;;;;;;;21.08;10.35;;;14.80;55.80;;;;;;5093490;28;20153;-17
2023/03/04 09:07:57;;;;;;;16.80;9.38;;;14.80;55.80;;;;;;5093227;28;20054;-18
2023/03/04 09:10:23;;;;;;;19.65;10.65;;;14.80;55.90;;;;;;5093516;28;20103;-17
2023/03/04 09:12:50;;;;;;;21.30;10.40;;;14.90;55.00;;;;;;5093368;28;20128;-16
2023/03/04 09:15:16;;;;;;;16.92;9.85;;;15.10;54.10;;;;;;5093118;28;20360;-15
2023/03/04 09:17:42;;;;;;;19.05;10.95;;;15.30;53.60;;;;;;5093484;28;20032;-17
2023/03/04 09:20:09;;;;;;;21.85;11.35;;;15.40;53.30;;;;;;5093143;28;20020;-17
2023/03/04 09:22:37;;;;;;;21.90;11.45;;;15.50;52.80;;;;;;5092907;28;20024;-15
2023/03/04 09:25:03;;;;;;;19.98;12.05;;;15.70;52.60;;;;;;5092674;28;20462;-18
2023/03/04 09:27:29;;;;;;;22.35;13.65;;;15.90;50.90;;;;;;5093139;28;20020;-16
2023/03/04 09:29:55;;;;;;;25.02;14.45;;;15.90;51.20;;;;;;5159723;22;20055;-16
2023/03/04 09:32:22;;;;;;;20.27;12.68;;;16.00;50.60;;;;;;5072692;28;20456;-17
2023/03/04 09:34:48;;;;;;;21.80;12.48;;;15.90;51.30;;;;;;5072606;28;20027;-17
2023/03/04 09:37:14;;;;;;;17.42;11.75;;;15.90;52.00;;;;;;5072439;28;20386;-18
2023/03/04 09:39:40;;;;;;;19.95;13.30;;;16.00;52.20;;;;;;5072742;28;20020;-17
2023/03/04 09:42:15;;;;;;;21.42;13.18;;;16.30;51.90;;;;;;5072354;28;20039;-16
2023/03/04 09:44:44;;;;;;;21.50;13.45;;;16.50;51.60;;;;;;5072356;28;20074;-16
2023/03/04 09:47:14;;;;;;;16.90;11.00;;;16.60;51.40;;;;;;5072688;28;20021;-17
2023/03/04 09:49:43;;;;;;;18.48;11.63;;;16.60;51.00;;;;;;5072691;28;20012;-16
2023/03/04 09:52:29;;;;;;;17.40;10.45;;;16.70;48.90;;;;;;5072670;28;20066;-15
2023/03/04 09:55:27;;;;;;;18.00;9.82;;;16.90;48.00;;;;;;5072322;28;20090;-15
2023/03/04 09:58:14;;;;;;;14.38;9.80;;;17.10;47.20;;;;;;5072376;28;20024;-18
2023/03/04 10:00:46;;;;;;;17.65;8.95;;;17.30;47.70;;;;;;5071893;28;20040;-17
2023/03/04 10:03:19;;;;;;;14.32;8.73;;;17.40;44.80;;;;;;5072614;28;20073;-17
2023/03/04 10:05:53;;;;;;;19.17;10.05;;;17.50;44.90;;;;;;5072574;28;20024;-16
2023/03/04 10:08:55;;;;;;;20.10;10.45;;;17.60;45.20;;;;;;5072542;28;20033;-16
2023/03/04 10:11:26;;;;;;;18.52;10.13;;;17.70;44.80;;;;;;5010936;28;20076;-16
2023/03/04 10:13:59;;;;;;;19.15;11.48;;;17.90;43.90;;;;;;5010345;28;20034;-16
2023/03/04 10:16:38;;;;;;;19.63;11.38;;;18.20;42.40;;;;;;5010405;28;20108;-17
2023/03/04 10:19:30;;;;;;;18.25;10.93;;;18.40;41.60;;;;;;5011179;28;20466;-16
2023/03/04 10:21:57;;;;;;;19.65;11.48;;;18.60;41.80;;;;;;4994062;28;20469;-17
2023/03/04 10:24:27;;;;;;;18.83;11.85;;;18.90;39.50;;;;;;5012093;28;20112;-16
2023/03/04 10:27:14;;;;;;;18.48;11.73;;;19.10;39.20;;;;;;5014139;28;20026;-17
2023/03/04 10:29:40;;;;;;;18.80;11.50;;;19.30;38.70;;;;;;5013849;28;20042;-15
2023/03/04 10:32:12;;;;;;;21.25;11.80;;;19.50;38.90;;;;;;5014238;28;20030;-17
2023/03/04 10:34:38;;;;;;;17.45;11.10;;;19.50;39.20;;;;;;5157268;22;20402;-17
2023/03/04 10:37:07;;;;;;;20.05;12.00;;;19.40;39.80;;;;;;5096449;28;20458;-16
2023/03/04 10:39:48;;;;;;;20.05;11.75;;;19.40;40.20;;;;;;5096419;28;20024;-16
2023/03/04 10:42:14;;;;;;;18.58;11.32;;;19.20;39.90;;;;;;5096552;28;20039;-16
2023/03/04 10:44:52;;;;;;;19.73;12.20;;;18.90;41.30;;;;;;5095930;28;20378;-16
2023/03/04 10:47:18;;;;;;;20.30;11.95;;;19.00;38.40;;;;;;5096071;28;20024;-16
2023/03/04 10:49:55;;;;;;;20.15;11.90;;;19.20;38.40;;;;;;5096371;28;20076;-16
2023/03/04 10:52:29;;;;;;;18.13;10.63;;;19.50;37.70;;;;;;5096274;28;20031;-16
2023/03/04 10:55:01;;;;;;;17.73;11.15;;;19.90;36.50;;;;;;5095743;28;20020;-16
2023/03/04 10:57:39;;;;;;;18.83;11.13;;;20.20;36.40;;;;;;5096314;28;20028;-16
2023/03/04 11:00:27;;;;;;;17.50;10.77;;;20.40;36.20;;;;;;5095891;28;20089;-15
2023/03/04 11:03:29;;;;;;;19.73;10.75;;;20.60;35.60;;;;;;5095552;28;20032;-16
2023/03/04 11:06:04;;;;;;;16.75;10.10;;;20.80;35.70;;;;;;5095918;28;20028;-15
2023/03/04 11:08:30;;;;;;;18.23;11.07;;;20.90;36.40;;;;;;5095453;28;20027;-17
2023/03/04 11:10:56;;;;;;;18.88;11.80;;;21.00;35.70;;;;;;5077108;28;20115;-17
2023/03/04 11:13:24;;;;;;;18.48;11.48;;;21.10;35.50;;;;;;5077313;28;20159;-15
2023/03/04 11:15:56;;;;;;;17.42;10.30;;;21.00;36.00;;;;;;5095757;28;20020;-17
2023/03/04 11:18:49;;;;;;;17.58;11.05;;;20.90;36.70;;;;;;5095679;28;20028;-14
2023/03/04 11:21:22;;;;;;;22.27;13.43;;;21.10;36.30;;;;;;5095606;28;20048;-17
2023/03/04 11:23:53;;;;;;;20.33;13.27;;;21.50;34.90;;;;;;5095583;28;20304;-17
2023/03/04 11:26:29;;;;;;;20.45;12.85;;;21.60;34.80;;;;;;5095648;28;20051;-16
2023/03/04 11:29:13;;;;;;;17.98;11.43;;;21.70;35.50;;;;;;5095231;28;20056;-17
2023/03/04 11:31:54;;;;;;;16.85;11.15;;;21.90;34.10;;;;;;5077054;28;20020;-16
2023/03/04 11:34:38;;;;;;;21.35;12.98;;;22.00;34.70;;;;;;5094997;28;20087;-14
2023/03/04 11:37:11;;;;;;;21.55;12.50;;;22.30;33.90;;;;;;5094063;28;20028;-15
2023/03/04 11:42:22;;;;;;;17.02;10.68;;;22.50;33.50;;;;;;5072187;28;20491;-20
2023/03/04 11:44:49;;;;;;;16.73;11.20;;;22.40;34.20;;;;;;5134725;22;20127;-16
2023/03/04 11:47:24;;;;;;;18.85;11.43;;;22.60;33.30;;;;;;5094494;28;20027;-15
2023/03/04 11:50:21;;;;;;;16.85;10.45;;;22.60;33.60;;;;;;5094913;28;20497;-14
2023/03/04 11:52:54;;;;;;;17.77;12.02;;;22.70;32.90;;;;;;5094777;28;20504;-15
2023/03/04 11:55:39;;;;;;;18.23;11.32;;;22.90;32.80;;;;;;5076637;28;20031;-15
2023/03/04 11:58:43;;;;;;;16.55;10.85;;;22.90;32.70;;;;;;5095020;28;20142;-14
2023/03/04 12:01:19;;;;;;;18.85;10.60;;;23.30;32.50;;;;;;5094596;28;20502;-15
2023/03/04 12:04:23;;;;;;;16.23;10.77;;;23.40;32.60;;;;;;5095117;28;20016;-15
2023/03/04 12:07:06;;;;;;;18.88;11.43;;;23.50;32.70;;;;;;5094555;28;20051;-17
2023/03/04 12:09:59;;;;;;;19.90;11.55;;;23.70;31.20;;;;;;5094547;28;20024;-15
2023/03/04 12:12:43;;;;;;;16.40;11.07;;;23.70;31.30;;;;;;5094485;28;20039;-15
2023/03/04 12:15:36;;;;;;;16.95;11.35;;;23.60;31.80;;;;;;5076142;28;20444;-15
2023/03/04 12:18:27;;;;;;;16.85;10.70;;;23.60;31.00;;;;;;5094422;28;20047;-15
2023/03/04 12:21:08;;;;;;;18.10;10.35;;;23.80;29.90;;;;;;5094138;28;20173;-15
2023/03/04 12:24:08;;;;;;;18.38;10.48;;;23.40;31.10;;;;;;5094111;28;20028;-16
2023/03/04 12:26:48;;;;;;;16.40;10.32;;;23.50;31.20;;;;;;5094350;28;20054;-14
2023/03/04 12:29:29;;;;;;;19.70;12.00;;;23.70;30.80;;;;;;5094164;28;20027;-15
2023/03/04 12:32:16;;;;;;;17.27;10.73;;;23.60;31.20;;;;;;5094003;28;20028;-15
2023/03/04 12:35:26;;;;;;;15.85;10.80;;;23.40;31.20;;;;;;5094032;28;20030;-17
2023/03/04 12:38:07;;;;;;;19.02;11.85;;;23.30;31.30;;;;;;5051803;28;20029;-14
2023/03/04 12:40:48;;;;;;;19.48;10.93;;;23.20;31.80;;;;;;5051535;28;20125;-17
2023/03/04 12:43:43;;;;;;;18.70;9.70;;;23.10;31.60;;;;;;5152761;22;20464;-19
2023/03/04 12:46:14;;;;;;;17.30;11.45;;;23.10;32.00;;;;;;5093239;28;20058;-19
2023/03/04 12:48:47;;;;;;;17.17;10.68;;;23.20;32.40;;;;;;5151548;22;20046;-15